Time;durP1;ratioP1;P1;durP2;ratioP2;P2;SDS_P1;SDS_P2;PMS_P1;PMS_P2;Temp;Humidity;BMP_temperature;BMP_pressure;BME280_temperature;BME280_humidity;BME280_pressure;Samples;Min_cycle;Max_cycle;Signal;HPM_P1;HPM_P2
2022/08/15 00:00:08;;;;;;;16.88;10.55;;;25.50;78.60;;;;;;5053413;28;20032;-72
2022/08/15 00:02:33;;;;;;;15.57;10.30;;;25.40;78.70;;;;;;5052470;28;20052;-72
2022/08/15 00:05:01;;;;;;;12.68;9.02;;;25.40;78.80;;;;;;5058986;28;20041;-74
2022/08/15 00:07:26;;;;;;;11.23;9.95;;;25.40;79.10;;;;;;5068470;28;20020;-72
2022/08/15 00:09:52;;;;;;;13.55;9.32;;;25.40;79.10;;;;;;5067489;28;20029;-72
2022/08/15 00:12:18;;;;;;;13.02;9.95;;;25.40;79.20;;;;;;5067700;28;20097;-72
2022/08/15 00:14:44;;;;;;;13.15;10.43;;;25.30;79.10;;;;;;5067362;28;20029;-72
2022/08/15 00:17:09;;;;;;;12.02;10.35;;;25.30;79.50;;;;;;5068945;28;20044;-72
2022/08/15 00:19:39;;;;;;;12.00;9.45;;;25.30;79.50;;;;;;5067545;28;20033;-72
2022/08/15 00:22:07;;;;;;;11.32;9.40;;;25.30;79.60;;;;;;5061978;28;20043;-73
2022/08/15 00:24:35;;;;;;;16.38;10.25;;;25.30;79.70;;;;;;5055842;28;20052;-73
2022/08/15 00:27:05;;;;;;;61.08;13.80;;;25.30;79.80;;;;;;5051828;28;20116;-72
2022/08/15 00:29:32;;;;;;;18.02;10.40;;;25.30;79.80;;;;;;5051388;28;20087;-73
2022/08/15 00:31:59;;;;;;;29.83;11.10;;;25.20;80.00;;;;;;5052171;28;20036;-72
2022/08/15 00:34:27;;;;;;;15.57;10.48;;;25.20;80.00;;;;;;5051183;28;20029;-74
2022/08/15 00:36:52;;;;;;;22.08;11.02;;;25.20;80.30;;;;;;5052201;28;20087;-73
2022/08/15 00:39:22;;;;;;;39.60;15.15;;;25.10;80.30;;;;;;5041162;28;20025;-74
2022/08/15 00:41:48;;;;;;;24.60;12.13;;;25.10;80.60;;;;;;5051967;28;20036;-74
2022/08/15 00:44:19;;;;;;;15.52;10.73;;;25.00;80.80;;;;;;5042745;28;20060;-73
2022/08/15 00:46:50;;;;;;;14.20;10.05;;;25.00;81.00;;;;;;5051756;28;20065;-73
2022/08/15 00:49:16;;;;;;;11.85;9.85;;;25.00;81.20;;;;;;5050842;28;20063;-73
2022/08/15 00:52:05;;;;;;;17.27;10.05;;;24.90;81.10;;;;;;5041399;28;20060;-73
2022/08/15 00:54:41;;;;;;;23.98;11.85;;;24.90;81.40;;;;;;5039302;28;20127;-73
2022/08/15 00:57:27;;;;;;;35.92;12.82;;;24.90;81.30;;;;;;5050800;28;20029;-73
2022/08/15 00:59:57;;;;;;;16.85;10.13;;;24.80;81.50;;;;;;5051526;28;20082;-72
2022/08/15 01:02:30;;;;;;;236.75;38.40;;;24.80;82.00;;;;;;5049295;28;20025;-73
2022/08/15 01:04:57;;;;;;;13.13;10.45;;;24.80;82.10;;;;;;5052425;28;20029;-72
2022/08/15 01:07:23;;;;;;;11.00;9.80;;;24.70;82.30;;;;;;5050046;28;20032;-72
2022/08/15 01:09:50;;;;;;;11.48;9.35;;;24.70;82.70;;;;;;5052182;28;20032;-72
2022/08/15 01:12:20;;;;;;;11.68;10.07;;;24.70;82.90;;;;;;5050454;28;20407;-72
2022/08/15 01:14:50;;;;;;;10.98;9.52;;;24.60;83.20;;;;;;5052262;28;20048;-72
2022/08/15 01:17:16;;;;;;;12.93;10.35;;;24.50;83.50;;;;;;5036230;28;20033;-72
2022/08/15 01:19:52;;;;;;;18.70;11.02;;;24.50;83.80;;;;;;5056382;28;20111;-73
2022/08/15 01:22:36;;;;;;;12.63;11.32;;;24.50;84.20;;;;;;5049728;28;20037;-73
2022/08/15 01:25:13;;;;;;;35.00;14.82;;;24.40;84.20;;;;;;5048056;28;21709;-73
2022/08/15 01:27:46;;;;;;;13.77;10.13;;;24.40;84.50;;;;;;5017762;28;20053;-73
2022/08/15 01:30:17;;;;;;;27.58;11.20;;;24.30;84.90;;;;;;5047847;28;20114;-73
2022/08/15 01:32:43;;;;;;;29.27;12.73;;;24.30;85.20;;;;;;5051346;28;20096;-73
2022/08/15 01:35:11;;;;;;;51.65;15.25;;;24.20;85.40;;;;;;5048201;28;20032;-73
2022/08/15 01:37:40;;;;;;;23.45;12.27;;;24.20;85.80;;;;;;5050436;28;20047;-73
2022/08/15 01:40:36;;;;;;;34.92;15.23;;;24.20;86.00;;;;;;5051253;28;20025;-73
2022/08/15 01:43:02;;;;;;;26.02;11.35;;;24.10;86.00;;;;;;5044434;28;20052;-73
2022/08/15 01:45:31;;;;;;;40.03;14.95;;;24.10;86.40;;;;;;5048751;28;20113;-72
2022/08/15 01:48:03;;;;;;;22.20;12.00;;;24.10;86.90;;;;;;5050735;28;20037;-72
2022/08/15 01:50:39;;;;;;;44.33;14.27;;;24.00;87.00;;;;;;5047328;28;20036;-72
2022/08/15 01:53:17;;;;;;;18.20;12.25;;;24.00;87.20;;;;;;5031705;28;20427;-72
2022/08/15 01:55:57;;;;;;;20.33;12.13;;;24.00;87.50;;;;;;5050008;28;20075;-73
2022/08/15 01:58:23;;;;;;;18.30;11.63;;;24.00;87.70;;;;;;5050956;28;20021;-72
2022/08/15 02:00:52;;;;;;;20.75;12.30;;;24.00;87.90;;;;;;5048552;28;20044;-71
2022/08/15 02:03:33;;;;;;;13.18;11.20;;;23.90;88.00;;;;;;5046581;28;20499;-71
2022/08/15 02:06:11;;;;;;;13.73;11.18;;;23.90;88.20;;;;;;5049887;28;20057;-71
2022/08/15 02:08:38;;;;;;;15.10;11.15;;;23.90;88.30;;;;;;5050943;28;20030;-71
2022/08/15 02:11:06;;;;;;;12.88;10.73;;;23.90;88.60;;;;;;5050055;28;20274;-71
2022/08/15 02:13:32;;;;;;;29.45;13.02;;;23.90;89.00;;;;;;5050864;28;20103;-72
2022/08/15 02:15:59;;;;;;;14.25;11.65;;;23.90;89.20;;;;;;5053056;28;20483;-72
2022/08/15 02:18:24;;;;;;;16.45;12.02;;;23.80;89.40;;;;;;5041389;28;20028;-72
2022/08/15 02:20:50;;;;;;;12.90;11.52;;;23.80;89.90;;;;;;5054145;28;20021;-72
2022/08/15 02:23:15;;;;;;;15.85;10.93;;;23.80;89.80;;;;;;5054788;28;20032;-72
2022/08/15 02:25:41;;;;;;;14.07;11.52;;;23.80;90.00;;;;;;5053181;28;20298;-73
2022/08/15 02:28:06;;;;;;;15.27;12.32;;;23.80;90.10;;;;;;5053733;28;20025;-73
2022/08/15 02:30:33;;;;;;;14.98;11.30;;;23.70;90.20;;;;;;5036419;28;20059;-73
2022/08/15 02:33:00;;;;;;;13.05;11.48;;;23.60;90.30;;;;;;5054112;28;20025;-74
2022/08/15 02:35:27;;;;;;;14.38;11.77;;;23.60;90.50;;;;;;5052028;28;20475;-73
2022/08/15 02:37:52;;;;;;;16.13;11.57;;;23.60;90.50;;;;;;5053822;28;20055;-75
2022/08/15 02:40:19;;;;;;;15.13;11.93;;;23.60;90.50;;;;;;5042372;28;20025;-73
2022/08/15 02:42:46;;;;;;;13.77;11.00;;;23.50;90.60;;;;;;5044085;28;20036;-73
2022/08/15 02:45:14;;;;;;;17.80;12.52;;;23.60;90.80;;;;;;5051587;28;20060;-73
2022/08/15 02:47:44;;;;;;;17.30;12.75;;;23.50;90.90;;;;;;5054287;28;20028;-73
2022/08/15 02:50:12;;;;;;;13.05;11.63;;;23.60;90.90;;;;;;5053296;28;20056;-73
2022/08/15 02:52:39;;;;;;;14.48;12.48;;;23.50;91.00;;;;;;5053588;28;20021;-72
2022/08/15 02:55:06;;;;;;;14.70;11.80;;;23.50;91.20;;;;;;5047477;28;20025;-72
2022/08/15 02:57:32;;;;;;;14.40;12.02;;;23.50;91.30;;;;;;5053789;28;20036;-72
2022/08/15 02:59:57;;;;;;;15.00;12.50;;;23.40;91.30;;;;;;5053476;28;20112;-73
2022/08/15 03:02:25;;;;;;;13.05;11.75;;;23.40;91.50;;;;;;5020382;28;20148;-73
2022/08/15 03:04:50;;;;;;;15.27;12.82;;;23.40;91.60;;;;;;5017510;28;20044;-72
2022/08/15 03:07:16;;;;;;;14.05;12.43;;;23.40;91.80;;;;;;5052736;28;20037;-72
2022/08/15 03:09:41;;;;;;;14.38;12.93;;;23.40;91.90;;;;;;5051909;28;20488;-72
2022/08/15 03:12:07;;;;;;;14.35;12.85;;;23.30;92.00;;;;;;5052996;28;20369;-72
2022/08/15 03:14:36;;;;;;;14.43;11.98;;;23.30;92.10;;;;;;5053630;28;20029;-71
2022/08/15 03:17:03;;;;;;;15.32;13.27;;;23.30;92.20;;;;;;5052416;28;20036;-72
2022/08/15 03:19:28;;;;;;;13.40;12.00;;;23.20;92.30;;;;;;5054268;28;20025;-73
2022/08/15 03:21:54;;;;;;;15.82;12.43;;;23.20;92.40;;;;;;5051614;28;20025;-73
2022/08/15 03:24:22;;;;;;;13.55;12.15;;;23.20;92.50;;;;;;5053234;28;20025;-74
2022/08/15 03:26:48;;;;;;;17.35;13.65;;;23.20;92.70;;;;;;5043466;28;20047;-73
2022/08/15 03:29:16;;;;;;;14.55;13.05;;;23.10;92.80;;;;;;5053827;28;20108;-73
2022/08/15 03:31:44;;;;;;;14.63;13.02;;;23.10;93.00;;;;;;5052190;28;20053;-73
2022/08/15 03:34:11;;;;;;;14.93;13.30;;;23.10;93.10;;;;;;5059536;28;20033;-73
2022/08/15 03:36:37;;;;;;;18.70;14.25;;;23.10;93.20;;;;;;5058255;28;20036;-73
2022/08/15 03:39:04;;;;;;;18.10;13.75;;;23.00;93.20;;;;;;5056372;28;20025;-73
2022/08/15 03:41:30;;;;;;;14.90;13.18;;;23.00;93.40;;;;;;5052666;28;20443;-73
2022/08/15 03:43:55;;;;;;;15.13;13.40;;;23.00;93.40;;;;;;5052050;28;20024;-73
2022/08/15 03:46:21;;;;;;;17.63;14.35;;;23.00;93.50;;;;;;5052871;28;20060;-73
2022/08/15 03:48:50;;;;;;;16.40;14.38;;;23.00;93.50;;;;;;5051678;28;20074;-73
2022/08/15 03:51:18;;;;;;;15.75;13.30;;;23.00;93.70;;;;;;5051954;28;20175;-71
2022/08/15 03:53:47;;;;;;;14.68;13.05;;;23.00;93.90;;;;;;5053038;28;20021;-73
2022/08/15 03:56:18;;;;;;;15.35;13.43;;;22.90;93.80;;;;;;5043801;28;20514;-73
2022/08/15 03:58:45;;;;;;;19.27;14.40;;;22.90;93.90;;;;;;5052889;28;20043;-74
2022/08/15 04:01:22;;;;;;;17.35;15.40;;;22.90;94.00;;;;;;5048625;28;20029;-74
2022/08/15 04:03:49;;;;;;;16.67;13.40;;;22.90;94.10;;;;;;5052439;28;20367;-73
2022/08/15 04:06:19;;;;;;;13.95;12.50;;;22.90;94.10;;;;;;5051293;28;20084;-74
2022/08/15 04:08:47;;;;;;;16.13;13.00;;;22.90;94.10;;;;;;5051437;28;20051;-74
2022/08/15 04:11:14;;;;;;;18.13;14.80;;;22.90;94.10;;;;;;5051122;28;20036;-73
2022/08/15 04:13:40;;;;;;;18.63;13.77;;;22.90;94.30;;;;;;5051721;28;20032;-74
2022/08/15 04:16:07;;;;;;;16.40;13.15;;;22.90;94.40;;;;;;5051694;28;20040;-74
2022/08/15 04:18:34;;;;;;;21.50;19.52;;;22.90;94.40;;;;;;5052414;28;20053;-73
2022/08/15 04:21:03;;;;;;;15.63;14.00;;;22.80;94.50;;;;;;5050579;28;20032;-73
2022/08/15 04:23:29;;;;;;;16.33;14.63;;;22.80;94.70;;;;;;5053364;28;20450;-73
2022/08/15 04:25:55;;;;;;;17.63;13.50;;;22.80;94.80;;;;;;5049730;28;20040;-73
2022/08/15 04:28:22;;;;;;;15.75;13.93;;;22.70;94.80;;;;;;5053088;28;20513;-73
2022/08/15 04:30:49;;;;;;;16.45;14.55;;;22.70;95.00;;;;;;5049910;28;20033;-73
2022/08/15 04:33:27;;;;;;;20.23;13.95;;;22.70;95.00;;;;;;5051059;28;20128;-73
2022/08/15 04:36:00;;;;;;;17.23;13.98;;;22.70;95.20;;;;;;5034574;28;20025;-73
2022/08/15 04:38:26;;;;;;;15.48;13.88;;;22.80;95.40;;;;;;5052384;28;20051;-74
2022/08/15 04:40:54;;;;;;;19.50;14.77;;;22.80;95.20;;;;;;5050306;28;20495;-73
2022/08/15 04:43:21;;;;;;;16.63;12.98;;;22.80;95.30;;;;;;5051971;28;20570;-73
2022/08/15 04:45:47;;;;;;;16.45;13.48;;;22.80;95.30;;;;;;5050797;28;20102;-74
2022/08/15 04:48:14;;;;;;;19.35;13.60;;;22.80;95.30;;;;;;5052871;28;20104;-73
2022/08/15 04:50:41;;;;;;;15.00;12.90;;;22.90;95.40;;;;;;5050148;28;20514;-74
2022/08/15 04:53:07;;;;;;;18.85;13.95;;;22.90;95.40;;;;;;5051112;28;20025;-73
2022/08/15 04:55:35;;;;;;;15.32;12.77;;;22.90;95.40;;;;;;5050387;28;20040;-74
2022/08/15 04:58:01;;;;;;;16.42;13.18;;;22.90;95.40;;;;;;5051612;28;20104;-73
2022/08/15 05:00:29;;;;;;;19.30;14.45;;;23.00;95.50;;;;;;5050338;28;20053;-73
2022/08/15 05:03:04;;;;;;;16.25;14.02;;;23.00;95.50;;;;;;5050273;28;20060;-73
2022/08/15 05:05:32;;;;;;;15.85;13.75;;;23.00;95.50;;;;;;5048820;28;20144;-72
2022/08/15 05:07:58;;;;;;;15.20;12.88;;;23.00;95.50;;;;;;5051322;28;20380;-73
2022/08/15 05:10:24;;;;;;;18.52;14.68;;;23.00;95.60;;;;;;5050890;28;20036;-73
2022/08/15 05:12:49;;;;;;;15.60;14.00;;;23.00;95.60;;;;;;5050577;28;20064;-73
2022/08/15 05:15:18;;;;;;;15.48;13.75;;;23.10;95.60;;;;;;5050186;28;20032;-73
2022/08/15 05:17:45;;;;;;;14.77;13.18;;;23.10;95.60;;;;;;5050217;28;20040;-74
2022/08/15 05:20:12;;;;;;;18.58;13.00;;;23.10;95.70;;;;;;5032601;28;20100;-74
2022/08/15 05:22:51;;;;;;;16.65;13.32;;;23.10;95.70;;;;;;5049728;28;20086;-73
2022/08/15 05:25:18;;;;;;;13.90;12.15;;;23.10;95.70;;;;;;5050543;28;20094;-73
2022/08/15 05:27:43;;;;;;;15.73;12.75;;;23.10;95.70;;;;;;5051256;28;20495;-73
2022/08/15 05:30:09;;;;;;;16.80;13.20;;;23.10;95.60;;;;;;5033071;28;20021;-73
2022/08/15 05:32:35;;;;;;;14.88;13.18;;;23.20;95.70;;;;;;5050648;28;20036;-73
2022/08/15 05:35:00;;;;;;;20.98;14.20;;;23.20;95.70;;;;;;5050480;28;20373;-72
2022/08/15 05:37:27;;;;;;;18.23;13.43;;;23.20;95.70;;;;;;5050672;28;20091;-73
2022/08/15 05:39:53;;;;;;;25.15;13.88;;;23.20;95.70;;;;;;5049781;28;20171;-73
2022/08/15 05:42:47;;;;;;;30.08;14.13;;;23.30;95.80;;;;;;5050021;28;20108;-72
2022/08/15 05:45:30;;;;;;;16.48;13.40;;;23.30;95.70;;;;;;5049907;28;20056;-73
2022/08/15 05:48:12;;;;;;;16.85;12.90;;;23.30;95.60;;;;;;5014499;28;20477;-73
2022/08/15 05:50:48;;;;;;;14.20;12.20;;;23.40;95.60;;;;;;5040808;28;20041;-72
2022/08/15 05:53:49;;;;;;;15.40;12.85;;;23.40;95.50;;;;;;5051056;28;20542;-73
2022/08/15 05:56:24;;;;;;;15.88;12.68;;;23.40;95.40;;;;;;5015844;28;20033;-73
2022/08/15 05:59:04;;;;;;;18.88;13.13;;;23.50;95.40;;;;;;5053229;28;20532;-74
2022/08/15 06:01:33;;;;;;;15.82;13.75;;;23.50;95.40;;;;;;5049650;28;20529;-73
2022/08/15 06:04:18;;;;;;;16.88;13.07;;;23.60;95.50;;;;;;5049445;28;20122;-74
2022/08/15 06:06:46;;;;;;;16.10;12.98;;;23.60;95.50;;;;;;5042270;28;20504;-73
2022/08/15 06:09:36;;;;;;;15.98;12.18;;;23.70;95.40;;;;;;5045781;28;20064;-73
2022/08/15 06:12:11;;;;;;;17.20;13.00;;;23.80;95.30;;;;;;5047409;28;20044;-69
2022/08/15 06:14:43;;;;;;;21.38;12.82;;;23.90;95.40;;;;;;5050036;28;20379;-69
2022/08/15 06:17:23;;;;;;;13.27;11.55;;;24.00;95.40;;;;;;5047321;28;20032;-70
2022/08/15 06:19:51;;;;;;;14.27;12.35;;;24.10;95.30;;;;;;5050224;28;20048;-70
2022/08/15 06:22:40;;;;;;;15.30;12.25;;;24.20;95.10;;;;;;5048082;28;20028;-69
2022/08/15 06:25:34;;;;;;;13.15;11.75;;;24.30;94.90;;;;;;5041165;28;20557;-70
2022/08/15 06:28:23;;;;;;;16.02;12.90;;;24.40;94.70;;;;;;5040285;28;20036;-69
2022/08/15 06:31:00;;;;;;;12.93;11.57;;;24.50;94.60;;;;;;5045359;28;20037;-70
2022/08/15 06:33:40;;;;;;;13.77;12.02;;;24.50;94.50;;;;;;5050155;28;20112;-70
2022/08/15 06:36:19;;;;;;;13.20;11.68;;;24.50;94.50;;;;;;5052171;28;20033;-70
2022/08/15 06:39:01;;;;;;;15.75;12.38;;;24.50;94.60;;;;;;5044291;28;20029;-70
2022/08/15 06:41:32;;;;;;;15.55;12.70;;;24.60;94.50;;;;;;5048827;28;20037;-69
2022/08/15 06:43:59;;;;;;;14.35;12.07;;;24.70;94.40;;;;;;5049885;28;20037;-69
2022/08/15 06:46:32;;;;;;;18.60;11.30;;;24.80;94.30;;;;;;5049594;28;20037;-69
2022/08/15 06:49:05;;;;;;;14.90;12.20;;;25.00;94.20;;;;;;5030721;28;20090;-70
2022/08/15 06:51:32;;;;;;;15.43;13.52;;;25.10;94.10;;;;;;5049699;28;20111;-69
2022/08/15 06:53:59;;;;;;;13.52;11.90;;;25.10;94.10;;;;;;5049360;28;20033;-69
2022/08/15 06:56:33;;;;;;;14.23;12.30;;;25.20;93.90;;;;;;5049072;28;20112;-70
2022/08/15 06:59:21;;;;;;;13.98;11.23;;;25.10;93.70;;;;;;5034571;28;20048;-69
2022/08/15 07:02:24;;;;;;;13.23;11.70;;;25.20;93.70;;;;;;5047725;28;20037;-69
2022/08/15 07:04:55;;;;;;;13.10;11.70;;;25.20;93.70;;;;;;5051834;28;20090;-70
2022/08/15 07:07:45;;;;;;;12.73;11.20;;;25.20;93.60;;;;;;5052935;28;20040;-69
2022/08/15 07:10:12;;;;;;;12.93;11.20;;;25.30;93.60;;;;;;5051589;28;20029;-70
2022/08/15 07:12:56;;;;;;;14.63;11.32;;;25.30;93.50;;;;;;5052097;28;20032;-69
2022/08/15 07:15:35;;;;;;;11.77;10.57;;;25.30;93.40;;;;;;5035901;28;20076;-70
2022/08/15 07:18:07;;;;;;;14.93;10.70;;;25.30;93.40;;;;;;5045420;28;20037;-69
2022/08/15 07:20:34;;;;;;;12.20;10.88;;;25.40;93.40;;;;;;5052372;28;20117;-69
2022/08/15 07:23:14;;;;;;;11.07;9.90;;;25.50;93.30;;;;;;5052663;28;20107;-69
2022/08/15 07:25:45;;;;;;;12.05;9.55;;;25.50;93.20;;;;;;5051858;28;20043;-70
2022/08/15 07:28:11;;;;;;;11.32;9.27;;;25.50;93.00;;;;;;5050810;28;20021;-70
2022/08/15 07:30:55;;;;;;;10.43;9.35;;;25.60;92.90;;;;;;5051132;28;20409;-70
2022/08/15 07:33:28;;;;;;;12.38;9.35;;;25.60;92.90;;;;;;5053474;28;20037;-70
2022/08/15 07:36:03;;;;;;;10.90;9.60;;;25.60;92.70;;;;;;5050042;28;20025;-70
2022/08/15 07:38:30;;;;;;;10.00;9.00;;;25.70;92.80;;;;;;5035694;28;20434;-70
2022/08/15 07:41:22;;;;;;;11.70;9.32;;;25.70;92.70;;;;;;5051180;28;20035;-70
2022/08/15 07:43:49;;;;;;;10.25;9.02;;;25.80;92.60;;;;;;5043747;28;20040;-70
2022/08/15 07:46:22;;;;;;;10.85;9.75;;;25.90;92.60;;;;;;5050654;28;20068;-70
2022/08/15 07:49:30;;;;;;;10.60;9.00;;;25.90;92.20;;;;;;5052266;28;20427;-70
2022/08/15 07:52:16;;;;;;;11.82;9.07;;;26.00;92.30;;;;;;4991660;28;20031;-69
2022/08/15 07:54:41;;;;;;;12.32;9.93;;;26.00;92.20;;;;;;5002848;28;20029;-70
2022/08/15 07:57:28;;;;;;;13.48;10.70;;;26.00;92.20;;;;;;5029336;28;20394;-70
2022/08/15 08:00:13;;;;;;;13.68;11.23;;;26.10;92.00;;;;;;5044920;28;20410;-71
2022/08/15 08:02:48;;;;;;;;;;;26.10;91.90;;;;;;5050761;28;20037;-71
2022/08/15 08:05:15;;;;;;;12.82;9.82;;;26.10;91.90;;;;;;5050894;28;19924;-71
2022/08/15 08:07:49;;;;;;;11.23;10.13;;;26.10;91.90;;;;;;5051681;28;20029;-70
2022/08/15 08:10:39;;;;;;;11.07;9.98;;;26.10;91.90;;;;;;5051764;28;20115;-68
2022/08/15 08:13:20;;;;;;;11.95;10.05;;;26.10;91.80;;;;;;5040805;28;20057;-68
2022/08/15 08:16:03;;;;;;;10.82;8.88;;;26.20;91.70;;;;;;5044014;28;20106;-68
2022/08/15 08:18:54;;;;;;;12.27;10.05;;;26.20;91.50;;;;;;5051924;28;20033;-68
2022/08/15 08:21:51;;;;;;;10.98;9.70;;;26.30;91.50;;;;;;5050054;28;20021;-68
2022/08/15 08:24:32;;;;;;;11.50;9.00;;;26.30;91.40;;;;;;5052701;28;20111;-68
2022/08/15 08:27:04;;;;;;;12.55;10.40;;;26.40;91.40;;;;;;5043785;28;20037;-68
2022/08/15 08:30:08;;;;;;;10.98;9.35;;;26.40;91.00;;;;;;5051969;28;20040;-69
2022/08/15 08:32:41;;;;;;;10.52;9.00;;;26.40;90.90;;;;;;5049952;28;20043;-69
2022/08/15 08:35:22;;;;;;;10.20;9.10;;;26.50;91.10;;;;;;5039005;28;20059;-69
2022/08/15 08:38:14;;;;;;;13.27;9.35;;;26.60;90.90;;;;;;5048894;28;20032;-69
2022/08/15 08:43:46;;;;;;;11.27;9.48;;;26.60;90.70;;;;;;5043661;28;20035;-68
2022/08/15 08:46:40;;;;;;;10.23;9.07;;;26.60;90.70;;;;;;5049637;28;20033;-68
2022/08/15 08:49:16;;;;;;;13.25;9.32;;;26.70;90.60;;;;;;5048945;28;20025;-69
2022/08/15 08:51:58;;;;;;;13.90;10.02;;;26.70;90.80;;;;;;5050960;28;20033;-69
2022/08/15 08:54:36;;;;;;;11.68;9.38;;;26.80;90.50;;;;;;5050872;28;20029;-68
2022/08/15 08:57:09;;;;;;;12.43;8.82;;;26.90;90.10;;;;;;5033687;28;20039;-68
2022/08/15 09:00:00;;;;;;;11.55;9.20;;;27.00;89.80;;;;;;5042127;28;20044;-68
2022/08/15 09:02:34;;;;;;;9.75;8.73;;;27.10;90.00;;;;;;5050433;28;20028;-68
2022/08/15 09:05:07;;;;;;;11.98;8.80;;;27.10;89.90;;;;;;5027973;28;20484;-69
2022/08/15 09:07:39;;;;;;;11.40;10.20;;;27.20;90.00;;;;;;5048968;28;20048;-68
2022/08/15 09:10:07;;;;;;;11.82;8.70;;;27.20;89.20;;;;;;5050800;28;20182;-68
2022/08/15 09:15:30;;;;;;;13.10;9.20;;;27.40;87.60;;;;;;5050937;28;20091;-68
2022/08/15 09:18:04;;;;;;;10.80;8.93;;;27.40;87.20;;;;;;5048950;28;20074;-68
2022/08/15 09:20:39;;;;;;;10.23;9.13;;;27.50;86.80;;;;;;5036612;28;20593;-68
2022/08/15 09:23:08;;;;;;;10.77;9.25;;;27.70;87.30;;;;;;5049806;28;20036;-68
2022/08/15 09:25:46;;;;;;;9.70;8.70;;;27.70;87.10;;;;;;5049592;28;20041;-68
2022/08/15 09:28:42;;;;;;;9.82;8.30;;;27.90;87.20;;;;;;5048668;28;20033;-68
2022/08/15 09:31:21;;;;;;;10.10;8.65;;;28.00;85.70;;;;;;5047229;28;20045;-69
2022/08/15 09:34:00;;;;;;;10.25;8.98;;;28.10;86.60;;;;;;5045444;28;20060;-68
2022/08/15 09:36:55;;;;;;;10.95;9.77;;;28.10;85.40;;;;;;5048944;28;20468;-69
2022/08/15 09:39:36;;;;;;;10.02;8.95;;;28.20;85.40;;;;;;5039595;28;20121;-69
2022/08/15 09:42:20;;;;;;;12.90;9.18;;;28.20;84.20;;;;;;5048249;28;20016;-68
2022/08/15 09:45:36;;;;;;;11.90;9.40;;;28.30;84.20;;;;;;5050543;28;20037;-70
2022/08/15 09:48:19;;;;;;;10.70;9.70;;;28.50;84.80;;;;;;5023937;28;20124;-70
2022/08/15 09:51:04;;;;;;;9.95;8.77;;;28.50;83.80;;;;;;5045063;28;20029;-70
2022/08/15 09:53:54;;;;;;;17.33;9.60;;;28.60;83.20;;;;;;5049353;28;20025;-68
2022/08/15 09:56:22;;;;;;;12.40;8.73;;;28.70;82.90;;;;;;5049533;28;20067;-67
2022/08/15 09:59:08;;;;;;;11.50;9.43;;;28.80;82.50;;;;;;5050727;28;20033;-66
2022/08/15 10:01:56;;;;;;;10.82;8.73;;;28.90;82.80;;;;;;5042413;28;20044;-66
2022/08/15 10:04:39;;;;;;;10.30;8.68;;;29.00;82.20;;;;;;5048699;28;20103;-68
2022/08/15 10:07:08;;;;;;;9.27;8.38;;;29.00;80.90;;;;;;5047553;28;20075;-67
2022/08/15 10:09:41;;;;;;;9.05;8.13;;;29.10;81.10;;;;;;5049825;28;20472;-68
2022/08/15 10:12:07;;;;;;;9.65;8.32;;;29.20;80.90;;;;;;5045859;28;20048;-68
2022/08/15 10:14:47;;;;;;;9.80;8.38;;;29.30;80.70;;;;;;5050601;28;20480;-68
2022/08/15 10:17:32;;;;;;;10.10;9.10;;;29.40;80.40;;;;;;5047706;28;20088;-68
2022/08/15 10:20:18;;;;;;;9.65;8.32;;;29.40;80.40;;;;;;5047754;28;20025;-67
2022/08/15 10:22:48;;;;;;;10.90;8.98;;;29.40;79.80;;;;;;5050630;28;20029;-68
2022/08/15 10:25:29;;;;;;;10.90;8.60;;;29.50;78.90;;;;;;5031922;28;20476;-68
2022/08/15 10:28:18;;;;;;;10.25;8.90;;;29.40;79.20;;;;;;5040965;28;20032;-68
2022/08/15 10:31:02;;;;;;;10.45;9.23;;;29.40;79.30;;;;;;5048166;28;20025;-68
2022/08/15 10:33:32;;;;;;;12.32;8.45;;;29.40;79.50;;;;;;5050125;28;20151;-68
2022/08/15 10:36:13;;;;;;;12.50;8.43;;;29.60;78.50;;;;;;5049148;28;20108;-68
2022/08/15 10:38:44;;;;;;;10.38;8.75;;;29.60;78.20;;;;;;5053642;28;20052;-68
2022/08/15 10:41:18;;;;;;;10.68;8.77;;;29.60;77.40;;;;;;5052992;28;20471;-69
2022/08/15 10:44:14;;;;;;;9.57;8.57;;;29.60;77.60;;;;;;5054350;28;20037;-67
2022/08/15 10:46:54;;;;;;;9.15;8.10;;;29.70;76.80;;;;;;5053090;28;20045;-68
2022/08/15 10:49:46;;;;;;;9.35;8.43;;;29.80;76.80;;;;;;5053370;28;20074;-68
2022/08/15 10:52:23;;;;;;;9.50;7.88;;;29.90;77.00;;;;;;5053137;28;20033;-67
2022/08/15 10:55:00;;;;;;;10.35;9.02;;;30.00;76.10;;;;;;5050790;28;20037;-68
2022/08/15 10:57:44;;;;;;;8.98;8.07;;;30.10;76.50;;;;;;5053965;28;20036;-67
2022/08/15 11:00:34;;;;;;;9.65;8.75;;;30.20;75.90;;;;;;5049970;28;20415;-67
2022/08/15 11:03:02;;;;;;;9.50;8.68;;;30.30;75.50;;;;;;5025098;28;20136;-67
2022/08/15 11:05:28;;;;;;;10.00;8.73;;;30.40;76.10;;;;;;5050942;28;20998;-67
2022/08/15 11:07:55;;;;;;;10.32;9.23;;;30.40;75.40;;;;;;5054245;28;20044;-68
2022/08/15 11:10:24;;;;;;;9.40;8.40;;;30.40;74.90;;;;;;5054461;28;20025;-67
2022/08/15 11:12:54;;;;;;;9.27;8.38;;;30.40;74.30;;;;;;5057122;28;20029;-67
2022/08/15 11:15:40;;;;;;;11.05;9.35;;;30.50;74.80;;;;;;5057080;28;20231;-66
2022/08/15 11:18:08;;;;;;;8.82;7.93;;;30.60;74.20;;;;;;5058937;28;20571;-67
2022/08/15 11:20:49;;;;;;;9.73;8.80;;;30.70;73.20;;;;;;5057831;28;20028;-67
2022/08/15 11:23:35;;;;;;;10.35;9.00;;;30.80;73.90;;;;;;5058817;28;20158;-66
2022/08/15 11:26:03;;;;;;;9.52;8.52;;;30.90;73.10;;;;;;5059293;28;20044;-67
2022/08/15 11:28:29;;;;;;;9.35;8.45;;;30.90;72.30;;;;;;5058193;28;20025;-66
2022/08/15 11:31:05;;;;;;;10.32;9.02;;;30.90;72.10;;;;;;5051253;28;20025;-68
2022/08/15 11:33:43;;;;;;;10.43;8.90;;;30.90;72.50;;;;;;5053000;28;20104;-66
2022/08/15 11:36:18;;;;;;;10.30;8.25;;;30.80;71.50;;;;;;5051128;28;20514;-66
2022/08/15 11:38:56;;;;;;;9.70;8.23;;;30.80;71.90;;;;;;5052898;28;20029;-67
2022/08/15 11:41:30;;;;;;;9.27;8.38;;;30.80;71.30;;;;;;5051528;28;20480;-67
2022/08/15 11:43:59;;;;;;;10.20;9.07;;;30.70;70.90;;;;;;5052867;28;20037;-67
2022/08/15 11:46:27;;;;;;;8.88;7.68;;;30.70;71.90;;;;;;5035332;28;20408;-67
2022/08/15 11:49:22;;;;;;;9.30;8.10;;;30.60;71.80;;;;;;5048926;28;20112;-68
2022/08/15 11:51:48;;;;;;;9.20;8.30;;;30.70;71.60;;;;;;5052359;28;20484;-68
2022/08/15 11:54:13;;;;;;;11.55;8.40;;;30.80;71.40;;;;;;5050525;28;20043;-67
2022/08/15 11:56:53;;;;;;;8.90;7.68;;;30.90;70.70;;;;;;5047356;28;20025;-68
2022/08/15 11:59:24;;;;;;;10.05;7.88;;;30.90;70.10;;;;;;5051329;28;20116;-68
2022/08/15 12:02:18;;;;;;;8.98;8.15;;;31.00;70.00;;;;;;5039218;28;20120;-66
2022/08/15 12:04:46;;;;;;;8.83;7.70;;;31.20;70.00;;;;;;5051651;28;20287;-66
2022/08/15 12:07:11;;;;;;;13.85;8.70;;;31.20;69.90;;;;;;5049409;28;20287;-66
2022/08/15 12:09:38;;;;;;;9.65;8.32;;;31.30;69.60;;;;;;5052163;28;20179;-66
2022/08/15 12:12:14;;;;;;;10.98;9.30;;;31.30;68.70;;;;;;5051487;28;20040;-67
2022/08/15 12:14:46;;;;;;;9.93;9.00;;;31.40;68.80;;;;;;5052406;28;20466;-66
2022/08/15 12:17:25;;;;;;;8.75;7.95;;;31.50;69.40;;;;;;5051951;28;20116;-65
2022/08/15 12:19:55;;;;;;;10.75;8.45;;;31.50;68.40;;;;;;5051846;28;20025;-66
2022/08/15 12:22:29;;;;;;;10.10;9.15;;;31.40;68.20;;;;;;5052514;28;20033;-66
2022/08/15 12:24:55;;;;;;;9.32;8.40;;;31.40;68.40;;;;;;5050569;28;20033;-66
2022/08/15 12:27:22;;;;;;;9.77;8.73;;;31.30;68.00;;;;;;5051761;28;20068;-67
2022/08/15 12:29:47;;;;;;;9.63;8.63;;;31.20;68.10;;;;;;5056020;28;20052;-70
2022/08/15 12:32:13;;;;;;;9.50;8.45;;;31.20;68.40;;;;;;5049839;28;20472;-70
2022/08/15 12:34:41;;;;;;;9.88;8.30;;;31.10;68.50;;;;;;5050718;28;20032;-71
2022/08/15 12:37:11;;;;;;;10.13;9.00;;;31.10;67.90;;;;;;5051247;28;20029;-70
2022/08/15 12:39:43;;;;;;;10.20;8.18;;;31.10;68.40;;;;;;5051786;28;20131;-69
2022/08/15 12:42:12;;;;;;;11.93;8.02;;;31.00;68.20;;;;;;5051125;28;20091;-71
2022/08/15 12:44:38;;;;;;;8.80;7.90;;;30.90;67.60;;;;;;5051491;28;20025;-71
2022/08/15 12:47:05;;;;;;;8.68;7.78;;;31.00;68.50;;;;;;5052046;28;20143;-70
2022/08/15 12:49:31;;;;;;;9.60;8.57;;;31.00;68.60;;;;;;5051860;28;20033;-69
2022/08/15 12:51:56;;;;;;;9.52;8.45;;;31.00;68.70;;;;;;5050986;28;20031;-68
2022/08/15 12:54:22;;;;;;;9.05;8.15;;;31.00;68.20;;;;;;5051160;28;20112;-68
2022/08/15 12:56:48;;;;;;;11.57;9.25;;;31.00;68.40;;;;;;5050587;28;20037;-65
2022/08/15 12:59:14;;;;;;;9.45;8.43;;;31.00;68.70;;;;;;5047683;28;20375;-66
2022/08/15 13:01:42;;;;;;;10.45;7.85;;;30.90;68.10;;;;;;5049184;28;20388;-65
2022/08/15 13:04:10;;;;;;;10.13;8.27;;;30.90;67.50;;;;;;5049968;28;20072;-65
2022/08/15 13:06:48;;;;;;;14.82;9.57;;;30.90;67.70;;;;;;5048356;28;20503;-67
2022/08/15 13:09:15;;;;;;;9.85;8.48;;;30.80;69.60;;;;;;5050087;28;20028;-67